Time;durP1;ratioP1;P1;durP2;ratioP2;P2;SDS_P1;SDS_P2;PMS_P1;PMS_P2;Temp;Humidity;BMP_temperature;BMP_pressure;BME280_temperature;BME280_humidity;BME280_pressure;Samples;Min_cycle;Max_cycle;Signal;HPM_P1;HPM_P2
2023/05/05 00:01:12;;;;;;;14.45;9.70;;;14.90;84.30;;;;;;5002147;28;20052;-74
2023/05/05 00:03:38;;;;;;;13.50;10.02;;;14.90;84.40;;;;;;5003070;28;20152;-74
2023/05/05 00:06:04;;;;;;;13.98;10.32;;;14.80;84.10;;;;;;5006474;28;20103;-73
2023/05/05 00:08:30;;;;;;;12.00;9.40;;;14.80;84.20;;;;;;5005586;28;20026;-73
2023/05/05 00:10:56;;;;;;;14.65;11.43;;;14.70;84.30;;;;;;5007039;28;20052;-73
2023/05/05 00:13:23;;;;;;;14.38;10.98;;;14.70;84.50;;;;;;5002976;28;20026;-75
2023/05/05 00:15:49;;;;;;;14.80;10.80;;;14.70;84.70;;;;;;5009083;28;20079;-76
2023/05/05 00:18:16;;;;;;;15.10;10.07;;;14.70;84.90;;;;;;5002064;28;20026;-75
2023/05/05 00:20:43;;;;;;;14.20;10.10;;;14.60;84.80;;;;;;5004134;28;20038;-74
2023/05/05 00:23:09;;;;;;;13.93;9.77;;;14.70;85.00;;;;;;5005637;28;20127;-77
2023/05/05 00:25:34;;;;;;;14.13;10.60;;;14.80;85.10;;;;;;5005036;28;20031;-76
2023/05/05 00:28:00;;;;;;;12.73;9.63;;;14.80;85.10;;;;;;5011792;28;20124;-76
2023/05/05 00:30:26;;;;;;;12.32;9.52;;;14.80;85.20;;;;;;4987359;28;20072;-74
2023/05/05 00:32:53;;;;;;;13.38;9.93;;;14.80;85.30;;;;;;5009920;28;20065;-76
2023/05/05 00:35:18;;;;;;;13.98;10.43;;;14.90;85.10;;;;;;5004392;28;20466;-76
2023/05/05 00:37:44;;;;;;;12.02;9.30;;;14.80;84.90;;;;;;5003129;28;20025;-76
2023/05/05 00:40:10;;;;;;;13.13;9.13;;;14.80;84.90;;;;;;5003758;28;20026;-74
2023/05/05 00:42:43;;;;;;;11.55;8.68;;;14.80;84.70;;;;;;4987129;28;20125;-75
2023/05/05 00:45:10;;;;;;;12.48;9.02;;;14.80;84.70;;;;;;5004348;28;20025;-75
2023/05/05 00:47:36;;;;;;;13.45;9.80;;;14.80;84.70;;;;;;5002859;28;20124;-79
2023/05/05 00:50:08;;;;;;;11.88;9.90;;;14.80;84.80;;;;;;5011450;28;20026;-73
2023/05/05 00:52:38;;;;;;;13.25;9.40;;;14.80;84.80;;;;;;5003169;28;20037;-74
2023/05/05 00:55:04;;;;;;;12.45;9.20;;;14.70;84.80;;;;;;5004263;28;20033;-74
2023/05/05 00:57:31;;;;;;;11.98;9.30;;;14.70;84.60;;;;;;5002658;28;20367;-72
2023/05/05 00:59:58;;;;;;;13.02;8.43;;;14.60;84.70;;;;;;5002513;28;20472;-75
2023/05/05 01:02:24;;;;;;;12.02;8.50;;;14.60;84.80;;;;;;5005573;28;20064;-74
2023/05/05 01:04:50;;;;;;;10.93;8.52;;;14.60;84.70;;;;;;4991236;28;20386;-74
2023/05/05 01:07:41;;;;;;;11.82;8.38;;;14.50;84.80;;;;;;5002568;28;20048;-74
2023/05/05 01:10:40;;;;;;;12.48;8.82;;;14.60;85.00;;;;;;4987200;28;20481;-73
2023/05/05 01:13:24;;;;;;;11.35;9.48;;;14.60;85.00;;;;;;4982764;28;20499;-76
2023/05/05 01:16:22;;;;;;;12.73;9.52;;;14.50;84.90;;;;;;4999539;28;20040;-77
2023/05/05 01:19:06;;;;;;;13.80;9.70;;;14.40;85.00;;;;;;5005875;28;20030;-76
2023/05/05 01:21:47;;;;;;;14.35;9.95;;;14.40;85.10;;;;;;4998181;28;20037;-75
2023/05/05 01:24:43;;;;;;;13.88;10.57;;;14.40;85.10;;;;;;4985230;28;20471;-77
2023/05/05 01:27:29;;;;;;;13.48;10.90;;;14.40;85.20;;;;;;4997427;28;20482;-74
2023/05/05 01:30:13;;;;;;;13.35;9.82;;;14.30;85.30;;;;;;5002087;28;20037;-75
2023/05/05 01:32:47;;;;;;;12.52;10.57;;;14.40;85.40;;;;;;5007390;28;20046;-75
2023/05/05 01:35:28;;;;;;;12.93;10.30;;;14.40;85.50;;;;;;5002673;28;20029;-81
2023/05/05 01:38:15;;;;;;;12.38;10.70;;;14.40;85.50;;;;;;4996205;28;20042;-76
2023/05/05 01:41:16;;;;;;;12.93;10.93;;;14.40;85.60;;;;;;5002119;28;20033;-72
2023/05/05 01:43:45;;;;;;;15.68;11.25;;;14.40;85.50;;;;;;4973862;28;20117;-73
2023/05/05 01:46:13;;;;;;;15.13;11.82;;;14.50;85.50;;;;;;5000887;28;20030;-77
2023/05/05 01:48:41;;;;;;;15.93;12.30;;;14.40;85.40;;;;;;5009340;28;20269;-78
2023/05/05 01:51:07;;;;;;;13.30;11.57;;;14.40;85.40;;;;;;5006022;28;20041;-80
2023/05/05 01:53:35;;;;;;;15.80;11.95;;;14.40;85.60;;;;;;4996390;28;20528;-74
2023/05/05 01:56:02;;;;;;;15.13;11.35;;;14.40;85.70;;;;;;5003352;28;20030;-76
2023/05/05 01:58:29;;;;;;;15.93;12.23;;;14.40;85.70;;;;;;4997436;28;20589;-77
2023/05/05 02:00:57;;;;;;;13.45;12.05;;;14.30;85.70;;;;;;5004113;28;20053;-75
2023/05/05 02:03:24;;;;;;;14.25;11.88;;;14.30;85.80;;;;;;5003118;28;20014;-74
2023/05/05 02:05:52;;;;;;;16.15;12.52;;;14.30;85.90;;;;;;5005989;28;20060;-75
2023/05/05 02:08:18;;;;;;;15.48;13.27;;;14.30;85.90;;;;;;4999353;28;20022;-77
2023/05/05 02:10:45;;;;;;;17.08;12.98;;;14.30;85.80;;;;;;5004692;28;20113;-77
2023/05/05 02:13:11;;;;;;;14.48;12.23;;;14.30;86.00;;;;;;5006978;28;20030;-75
2023/05/05 02:15:38;;;;;;;16.63;13.80;;;14.40;86.00;;;;;;5002740;28;20037;-76
2023/05/05 02:18:06;;;;;;;16.20;14.23;;;14.40;86.20;;;;;;5002339;28;20029;-74
2023/05/05 02:20:32;;;;;;;19.23;14.48;;;14.50;86.30;;;;;;5003241;28;20674;-75
2023/05/05 02:22:58;;;;;;;16.60;14.90;;;14.50;86.20;;;;;;4996004;28;20035;-76
2023/05/05 02:25:33;;;;;;;16.65;14.27;;;14.50;86.10;;;;;;5002930;28;20387;-76
2023/05/05 02:27:59;;;;;;;16.05;14.18;;;14.60;86.30;;;;;;5002837;28;20084;-75
2023/05/05 02:30:29;;;;;;;16.83;14.57;;;14.60;86.30;;;;;;5003348;28;20030;-74
2023/05/05 02:33:01;;;;;;;17.23;15.35;;;14.60;86.20;;;;;;4998849;28;20064;-74
2023/05/05 02:35:36;;;;;;;17.60;14.68;;;14.60;86.10;;;;;;4984811;28;20025;-77
2023/05/05 02:38:05;;;;;;;17.60;15.55;;;14.60;86.20;;;;;;5000994;28;20141;-74
2023/05/05 02:40:33;;;;;;;17.95;15.93;;;14.60;86.10;;;;;;5003932;28;20026;-78
2023/05/05 02:43:03;;;;;;;17.65;15.38;;;14.60;86.20;;;;;;5002776;28;20040;-74
2023/05/05 02:45:29;;;;;;;18.48;16.02;;;14.70;86.30;;;;;;5006196;28;20117;-78
2023/05/05 02:47:55;;;;;;;20.30;16.05;;;14.70;86.30;;;;;;5001629;28;20120;-74
2023/05/05 02:50:21;;;;;;;20.15;16.20;;;14.60;86.30;;;;;;5003854;28;20026;-74
2023/05/05 02:52:47;;;;;;;17.58;15.65;;;14.60;86.30;;;;;;4983194;28;20554;-76
2023/05/05 02:55:13;;;;;;;18.70;16.80;;;14.60;86.30;;;;;;5001818;28;20025;-76
2023/05/05 02:57:57;;;;;;;19.45;16.30;;;14.60;86.30;;;;;;5001863;28;20049;-78
2023/05/05 03:00:34;;;;;;;21.63;17.48;;;14.60;86.40;;;;;;5001328;28;20053;-75
2023/05/05 03:03:29;;;;;;;19.23;17.25;;;14.60;86.50;;;;;;4998833;28;20061;-79
2023/05/05 03:06:10;;;;;;;;;;;14.60;86.70;;;;;;4997446;28;20088;-75
2023/05/05 03:08:43;;;;;;;20.10;17.98;;;14.60;86.70;;;;;;4994752;28;19953;-74
2023/05/05 03:11:34;;;;;;;20.33;17.73;;;14.60;86.80;;;;;;4997868;28;20042;-77
2023/05/05 03:14:15;;;;;;;21.30;16.55;;;14.60;86.80;;;;;;4997515;28;20029;-74
2023/05/05 03:16:42;;;;;;;24.35;18.83;;;14.60;86.80;;;;;;4995754;28;20037;-74
2023/05/05 03:19:10;;;;;;;19.08;17.05;;;14.60;86.70;;;;;;4997932;28;20173;-74
2023/05/05 03:21:37;;;;;;;22.23;17.48;;;14.60;86.70;;;;;;4998245;28;20042;-77
2023/05/05 03:24:16;;;;;;;19.40;17.20;;;14.60;86.70;;;;;;5000358;28;20470;-75
2023/05/05 03:26:43;;;;;;;22.02;17.48;;;14.60;86.70;;;;;;4980086;28;20762;-74
2023/05/05 03:29:09;;;;;;;18.67;16.30;;;14.60;86.50;;;;;;5003275;28;20037;-75
2023/05/05 03:31:35;;;;;;;20.27;17.30;;;14.60;86.70;;;;;;5003786;28;20037;-76
2023/05/05 03:34:00;;;;;;;18.50;16.58;;;14.60;86.70;;;;;;5005505;28;20061;-77
2023/05/05 03:36:26;;;;;;;20.88;16.98;;;14.60;86.70;;;;;;5002203;28;20456;-74
2023/05/05 03:38:52;;;;;;;18.30;16.30;;;14.50;86.60;;;;;;4997048;28;20064;-80
2023/05/05 03:41:19;;;;;;;20.67;16.92;;;14.40;86.60;;;;;;5007533;28;20042;-76
2023/05/05 03:43:45;;;;;;;20.65;16.70;;;14.50;86.70;;;;;;5008205;28;20026;-73
2023/05/05 03:46:10;;;;;;;18.98;16.02;;;14.50;86.90;;;;;;5002446;28;20036;-72
2023/05/05 03:48:36;;;;;;;21.58;17.00;;;14.50;86.90;;;;;;5005296;28;20033;-75
2023/05/05 03:51:02;;;;;;;21.33;18.05;;;14.50;86.90;;;;;;5003357;28;20034;-73
2023/05/05 03:53:28;;;;;;;20.10;16.75;;;14.50;87.00;;;;;;5005909;28;20034;-74
2023/05/05 03:55:53;;;;;;;20.40;17.30;;;14.50;87.00;;;;;;5000767;28;20612;-75
2023/05/05 03:58:19;;;;;;;21.38;18.02;;;14.50;87.00;;;;;;5000333;28;20034;-77
2023/05/05 04:00:45;;;;;;;18.80;16.20;;;14.60;86.90;;;;;;5004053;28;20466;-76
2023/05/05 04:03:10;;;;;;;19.45;16.33;;;14.50;86.90;;;;;;5006897;28;20041;-74
2023/05/05 04:05:36;;;;;;;20.08;17.83;;;14.50;86.90;;;;;;5006606;28;20029;-75
2023/05/05 04:08:02;;;;;;;20.60;17.08;;;14.50;86.80;;;;;;5002672;28;20065;-77
2023/05/05 04:10:28;;;;;;;19.55;16.92;;;14.40;86.80;;;;;;5006143;28;20594;-75
2023/05/05 04:12:54;;;;;;;19.23;16.55;;;14.40;86.80;;;;;;5010633;28;20041;-74
2023/05/05 04:15:20;;;;;;;19.65;16.75;;;14.40;86.80;;;;;;5007278;28;20247;-73
2023/05/05 04:17:46;;;;;;;19.90;16.13;;;14.30;86.90;;;;;;5009094;28;20034;-76
2023/05/05 04:20:11;;;;;;;21.52;17.33;;;14.20;87.10;;;;;;5011849;28;20591;-74
2023/05/05 04:22:37;;;;;;;19.70;16.27;;;14.20;87.30;;;;;;5004436;28;20217;-79
2023/05/05 04:25:03;;;;;;;21.25;17.45;;;14.20;87.40;;;;;;5006402;28;20072;-74
2023/05/05 04:27:29;;;;;;;22.00;17.73;;;14.20;87.50;;;;;;5006768;28;20037;-78
2023/05/05 04:29:56;;;;;;;19.50;17.40;;;14.20;87.50;;;;;;5006633;28;20037;-76
2023/05/05 04:32:21;;;;;;;20.20;16.70;;;14.20;87.50;;;;;;5003041;28;20053;-74
2023/05/05 04:34:47;;;;;;;23.42;17.88;;;14.30;87.60;;;;;;5002172;28;20022;-74
2023/05/05 04:37:13;;;;;;;21.15;17.42;;;14.30;87.60;;;;;;5006500;28;20041;-76
2023/05/05 04:39:40;;;;;;;20.10;16.58;;;14.30;87.60;;;;;;5002261;28;20052;-73
2023/05/05 04:42:06;;;;;;;19.00;16.92;;;14.30;87.50;;;;;;5006392;28;20123;-75
2023/05/05 04:44:32;;;;;;;21.08;17.52;;;14.40;87.40;;;;;;5005827;28;20478;-75
2023/05/05 04:46:59;;;;;;;23.85;18.08;;;14.50;87.20;;;;;;5006380;28;20681;-76
2023/05/05 04:49:27;;;;;;;21.90;16.70;;;14.60;87.00;;;;;;5009406;28;20080;-74
2023/05/05 04:51:54;;;;;;;20.23;16.27;;;14.60;86.70;;;;;;5003592;28;20060;-74
2023/05/05 04:54:20;;;;;;;21.30;17.27;;;14.60;86.70;;;;;;5009605;28;20032;-74
2023/05/05 04:56:46;;;;;;;20.40;16.90;;;14.60;86.80;;;;;;4984982;28;20033;-79
2023/05/05 04:59:12;;;;;;;20.85;16.58;;;14.60;86.60;;;;;;5000336;28;20053;-75
2023/05/05 05:01:38;;;;;;;19.60;16.50;;;14.70;86.50;;;;;;4976896;28;20065;-74
2023/05/05 05:04:04;;;;;;;21.40;17.65;;;14.80;86.30;;;;;;5005632;28;20552;-75
2023/05/05 05:06:30;;;;;;;19.73;15.85;;;14.80;86.20;;;;;;5003000;28;20033;-78
2023/05/05 05:08:57;;;;;;;20.10;15.48;;;14.90;86.20;;;;;;4999955;28;20030;-73
2023/05/05 05:11:22;;;;;;;20.75;17.10;;;15.00;86.10;;;;;;5004766;28;20397;-75
2023/05/05 05:13:48;;;;;;;18.63;16.40;;;15.10;85.70;;;;;;5003990;28;20088;-76
2023/05/05 05:16:14;;;;;;;20.33;15.10;;;15.30;85.50;;;;;;5000508;28;20513;-74
2023/05/05 05:18:40;;;;;;;20.10;16.25;;;15.40;84.90;;;;;;5010475;28;20411;-74
2023/05/05 05:21:05;;;;;;;19.85;16.15;;;15.50;85.00;;;;;;5003403;28;20049;-78
2023/05/05 05:23:31;;;;;;;20.02;15.68;;;15.60;84.90;;;;;;4979573;28;20033;-74
2023/05/05 05:25:57;;;;;;;18.50;15.52;;;15.70;84.40;;;;;;4984436;28;20037;-74
2023/05/05 05:28:22;;;;;;;20.80;15.48;;;15.80;84.20;;;;;;5001604;28;20045;-75
2023/05/05 05:30:48;;;;;;;19.88;15.25;;;15.90;83.60;;;;;;5000203;28;20067;-78
2023/05/05 05:33:14;;;;;;;17.85;14.70;;;15.90;83.40;;;;;;4986229;28;20108;-78
2023/05/05 05:35:39;;;;;;;21.40;15.45;;;15.90;83.50;;;;;;4997693;28;20037;-76
2023/05/05 05:38:05;;;;;;;18.33;15.48;;;15.90;83.70;;;;;;5004363;28;20099;-74
2023/05/05 05:40:31;;;;;;;17.05;13.75;;;16.00;83.60;;;;;;5003632;28;20032;-75
2023/05/05 05:42:56;;;;;;;20.83;14.73;;;16.10;83.70;;;;;;5002245;28;20041;-76
2023/05/05 05:45:22;;;;;;;18.60;15.63;;;16.10;83.50;;;;;;5002271;28;20374;-77
2023/05/05 05:47:48;;;;;;;17.50;14.10;;;16.10;83.30;;;;;;5008333;28;20387;-76
2023/05/05 05:50:14;;;;;;;17.60;14.02;;;16.10;83.30;;;;;;4999998;28;20085;-74
2023/05/05 05:52:40;;;;;;;17.45;14.63;;;16.00;82.90;;;;;;4995443;28;20387;-75
2023/05/05 05:55:06;;;;;;;16.40;13.65;;;16.10;83.50;;;;;;5002484;28;20078;-76
2023/05/05 05:57:32;;;;;;;19.73;14.82;;;16.30;83.20;;;;;;5001970;28;20121;-73
2023/05/05 05:59:58;;;;;;;20.92;14.98;;;16.40;82.90;;;;;;4999760;28;20053;-74
2023/05/05 06:02:25;;;;;;;18.08;13.00;;;16.50;82.60;;;;;;5001081;28;20157;-74
2023/05/05 06:04:51;;;;;;;16.65;13.18;;;16.60;82.10;;;;;;5004488;28;20032;-74
2023/05/05 06:07:17;;;;;;;18.15;13.45;;;16.60;81.80;;;;;;5008858;28;20030;-75
2023/05/05 06:09:43;;;;;;;16.13;13.13;;;16.70;81.90;;;;;;4982673;28;20420;-74
2023/05/05 06:12:08;;;;;;;17.88;12.60;;;16.80;81.50;;;;;;4999336;28;20076;-74
2023/05/05 06:14:34;;;;;;;18.45;13.50;;;16.80;81.40;;;;;;5003713;28;20033;-73
2023/05/05 06:17:00;;;;;;;17.50;12.00;;;16.90;81.30;;;;;;5002232;28;20407;-77
2023/05/05 06:19:25;;;;;;;19.33;12.65;;;17.00;80.80;;;;;;5002766;28;20025;-75
2023/05/05 06:21:51;;;;;;;17.63;11.32;;;17.00;80.90;;;;;;4999425;28;20046;-77
2023/05/05 06:24:17;;;;;;;17.08;11.57;;;17.10;81.10;;;;;;4985888;28;20022;-74
2023/05/05 06:26:43;;;;;;;18.10;12.27;;;17.10;80.20;;;;;;5001155;28;20040;-76
2023/05/05 06:29:08;;;;;;;19.10;11.50;;;17.10;80.00;;;;;;5001295;28;20065;-75
2023/05/05 06:31:34;;;;;;;16.27;11.35;;;17.20;80.00;;;;;;5000112;28;20108;-75
2023/05/05 06:34:00;;;;;;;16.35;12.27;;;17.30;80.00;;;;;;4991582;28;20084;-75
2023/05/05 06:36:26;;;;;;;14.25;10.98;;;17.30;79.80;;;;;;5004542;28;20653;-75
2023/05/05 06:38:52;;;;;;;16.27;9.23;;;17.30;80.10;;;;;;5004051;28;20026;-76
2023/05/05 06:41:18;;;;;;;16.83;10.70;;;17.30;79.90;;;;;;5001980;28;20605;-74
2023/05/05 06:43:44;;;;;;;17.10;10.70;;;17.30;80.00;;;;;;5004830;28;20036;-79
2023/05/05 06:46:10;;;;;;;16.10;10.10;;;17.30;80.00;;;;;;5001085;28;20050;-76
2023/05/05 06:48:35;;;;;;;15.32;10.23;;;17.20;79.50;;;;;;4998400;28;20449;-78
2023/05/05 06:51:01;;;;;;;16.73;10.68;;;17.20;80.30;;;;;;4999405;28;20045;-79
2023/05/05 06:53:27;;;;;;;14.57;10.73;;;17.30;79.70;;;;;;5000052;28;20068;-80
2023/05/05 06:55:52;;;;;;;17.05;11.15;;;17.40;79.80;;;;;;5002331;28;20498;-79
2023/05/05 06:58:19;;;;;;;17.85;11.55;;;17.50;79.70;;;;;;5004202;28;20025;-79
2023/05/05 07:00:45;;;;;;;20.52;11.05;;;17.60;79.30;;;;;;4982804;28;20399;-75
2023/05/05 07:03:11;;;;;;;14.13;10.15;;;17.60;79.60;;;;;;5002924;28;20030;-78
2023/05/05 07:05:37;;;;;;;14.85;10.10;;;17.60;79.70;;;;;;5003922;28;20378;-80
2023/05/05 07:08:02;;;;;;;15.10;9.82;;;17.70;79.70;;;;;;5000644;28;20034;-81
2023/05/05 07:10:28;;;;;;;16.73;10.45;;;17.60;79.30;;;;;;4986356;28;20561;-79
2023/05/05 07:12:54;;;;;;;12.68;9.73;;;17.70;78.90;;;;;;4979299;28;20509;-80
2023/05/05 07:15:21;;;;;;;17.23;10.25;;;17.70;78.90;;;;;;4997775;28;20430;-79
2023/05/05 07:17:47;;;;;;;18.23;10.52;;;17.70;79.00;;;;;;5001198;28;20041;-78
2023/05/05 07:20:13;;;;;;;14.02;9.60;;;17.70;78.80;;;;;;5001346;28;20104;-76
2023/05/05 07:22:38;;;;;;;16.70;9.85;;;17.80;79.00;;;;;;5002122;28;20053;-76
2023/05/05 07:25:05;;;;;;;16.85;9.00;;;17.90;79.10;;;;;;5003022;28;20044;-76
2023/05/05 07:27:35;;;;;;;14.23;9.32;;;17.90;79.00;;;;;;5001444;28;20242;-76
2023/05/05 07:30:01;;;;;;;13.75;9.55;;;18.00;78.30;;;;;;4998637;28;20605;-77
2023/05/05 07:32:27;;;;;;;15.00;8.77;;;18.00;78.20;;;;;;4983775;28;20061;-76
2023/05/05 07:34:53;;;;;;;13.70;8.27;;;18.10;78.00;;;;;;5005668;28;20318;-79
2023/05/05 07:37:19;;;;;;;15.43;8.73;;;18.10;77.70;;;;;;4997496;28;20397;-75
2023/05/05 07:39:47;;;;;;;15.13;8.52;;;18.10;77.40;;;;;;4994065;28;20018;-80
2023/05/05 07:42:13;;;;;;;14.05;9.73;;;18.10;77.50;;;;;;5000153;28;20042;-78
2023/05/05 07:44:39;;;;;;;13.57;8.77;;;18.10;77.70;;;;;;4983539;28;20077;-79
2023/05/05 07:47:05;;;;;;;14.13;9.30;;;18.00;77.50;;;;;;5001503;28;20439;-76
2023/05/05 07:49:30;;;;;;;14.70;9.82;;;17.90;76.90;;;;;;5002061;28;20034;-80
2023/05/05 07:51:56;;;;;;;14.98;8.57;;;17.90;77.80;;;;;;5001474;28;20038;-77
2023/05/05 07:54:22;;;;;;;15.35;9.07;;;17.90;78.00;;;;;;5009611;28;20036;-74
2023/05/05 07:56:48;;;;;;;15.07;9.65;;;17.90;78.00;;;;;;4994012;28;20088;-77
2023/05/05 07:59:13;;;;;;;12.57;8.90;;;17.80;78.20;;;;;;5001019;28;20056;-82
2023/05/05 08:01:39;;;;;;;17.15;9.50;;;17.80;78.40;;;;;;4999055;28;20041;-79
2023/05/05 08:04:05;;;;;;;17.48;10.27;;;17.80;78.90;;;;;;5001668;28;20088;-77
2023/05/05 08:06:31;;;;;;;14.90;9.25;;;17.70;79.10;;;;;;5003168;28;20041;-82
2023/05/05 08:08:58;;;;;;;15.07;10.20;;;17.70;79.10;;;;;;5002324;28;20022;-76
2023/05/05 08:11:24;;;;;;;18.35;10.23;;;17.60;79.20;;;;;;5000653;28;20116;-80
2023/05/05 08:13:51;;;;;;;15.50;9.38;;;17.70;79.50;;;;;;5000347;28;20026;-75
2023/05/05 08:16:17;;;;;;;14.55;9.15;;;17.80;79.00;;;;;;5002210;28;20041;-76
2023/05/05 08:18:43;;;;;;;15.82;10.77;;;18.00;78.70;;;;;;4997463;28;20077;-75
2023/05/05 08:21:10;;;;;;;18.70;11.75;;;18.20;78.00;;;;;;4986101;28;20053;-75
2023/05/05 08:23:36;;;;;;;15.45;10.68;;;18.30;77.30;;;;;;5002326;28;20034;-73
2023/05/05 08:26:05;;;;;;;15.13;11.98;;;18.40;77.10;;;;;;5005547;28;20022;-74
2023/05/05 08:28:31;;;;;;;18.25;12.75;;;18.60;76.80;;;;;;5002897;28;20014;-73
2023/05/05 08:30:58;;;;;;;16.23;12.90;;;18.60;76.50;;;;;;5004238;28;20501;-75
2023/05/05 08:33:24;;;;;;;17.80;12.98;;;18.60;76.50;;;;;;5006193;28;20403;-75
2023/05/05 08:35:49;;;;;;;18.42;13.85;;;18.80;76.30;;;;;;5006311;28;20076;-76
2023/05/05 08:38:15;;;;;;;19.02;13.27;;;18.80;75.90;;;;;;5004695;28;20014;-77
2023/05/05 08:40:41;;;;;;;20.48;13.43;;;18.90;76.00;;;;;;5005183;28;20109;-74
2023/05/05 08:43:07;;;;;;;17.38;12.48;;;19.00;75.70;;;;;;5008738;28;20830;-77
2023/05/05 08:45:33;;;;;;;17.60;12.43;;;19.00;75.20;;;;;;5005274;28;20030;-79
2023/05/05 08:48:03;;;;;;;16.42;12.63;;;19.10;75.50;;;;;;4983553;28;20129;-77
2023/05/05 08:50:30;;;;;;;18.02;12.30;;;19.20;74.80;;;;;;5003507;28;20335;-79
2023/05/05 08:53:20;;;;;;;15.85;11.45;;;19.30;73.80;;;;;;5000816;28;20033;-75
2023/05/05 08:55:54;;;;;;;19.70;12.43;;;19.30;73.10;;;;;;4999751;28;20029;-75
2023/05/05 08:58:22;;;;;;;16.40;11.57;;;19.30;72.90;;;;;;5003107;28;20406;-80
2023/05/05 09:00:49;;;;;;;16.20;11.32;;;19.40;73.60;;;;;;5000805;28;20073;-77
2023/05/05 09:03:15;;;;;;;17.77;12.50;;;19.60;73.30;;;;;;5006410;28;20088;-77
2023/05/05 09:05:42;;;;;;;17.67;12.60;;;19.60;72.30;;;;;;4994886;28;20033;-76
2023/05/05 09:08:10;;;;;;;16.75;14.45;;;19.50;72.40;;;;;;5005131;28;20503;-75
2023/05/05 09:10:40;;;;;;;18.23;14.65;;;19.20;72.80;;;;;;5005435;28;20076;-79
2023/05/05 09:13:06;;;;;;;18.63;15.93;;;19.10;74.00;;;;;;5004058;28;20030;-78
2023/05/05 09:15:32;;;;;;;20.17;15.77;;;19.30;74.30;;;;;;5003135;28;20064;-74
2023/05/05 09:17:59;;;;;;;18.95;16.95;;;19.40;74.30;;;;;;5004988;28;20147;-76
2023/05/05 09:20:33;;;;;;;19.90;17.05;;;19.50;73.70;;;;;;4985325;28;20026;-78
2023/05/05 09:23:16;;;;;;;19.98;17.15;;;19.40;73.30;;;;;;4986668;28;20034;-77
2023/05/05 09:25:44;;;;;;;25.35;17.75;;;19.50;74.20;;;;;;4997458;28;20022;-76
2023/05/05 09:28:15;;;;;;;20.52;17.42;;;19.50;73.30;;;;;;5006418;28;20219;-79
2023/05/05 09:30:43;;;;;;;20.23;16.25;;;19.30;74.20;;;;;;4987838;28;20030;-79
2023/05/05 09:33:09;;;;;;;19.58;17.48;;;19.20;73.60;;;;;;5003674;28;20065;-75
2023/05/05 09:35:52;;;;;;;20.20;16.33;;;19.00;74.80;;;;;;5010735;28;20034;-77
2023/05/05 09:38:18;;;;;;;17.15;14.50;;;18.80;74.80;;;;;;4996307;28;20033;-77
2023/05/05 09:40:46;;;;;;;16.73;11.63;;;18.80;75.10;;;;;;4986959;28;20030;-83
2023/05/05 09:43:12;;;;;;;16.60;10.10;;;18.80;73.70;;;;;;4965278;28;20493;-76
2023/05/05 09:45:38;;;;;;;13.48;9.10;;;18.80;73.90;;;;;;5003529;28;20408;-78
2023/05/05 09:48:07;;;;;;;14.63;9.40;;;18.80;73.40;;;;;;5003143;28;20118;-77
2023/05/05 09:50:43;;;;;;;18.20;11.80;;;18.80;73.90;;;;;;5004328;28;20077;-81
2023/05/05 09:53:09;;;;;;;21.63;11.70;;;18.80;75.30;;;;;;4989556;28;20104;-77
2023/05/05 09:55:36;;;;;;;19.90;11.95;;;18.60;76.10;;;;;;5004051;28;20286;-77
2023/05/05 09:58:19;;;;;;;16.30;11.40;;;18.50;76.60;;;;;;5003245;28;20041;-77
2023/05/05 10:00:45;;;;;;;17.70;11.60;;;18.60;77.00;;;;;;4985685;28;20088;-76
2023/05/05 10:03:11;;;;;;;17.48;11.07;;;18.60;77.00;;;;;;5004680;28;20113;-78
2023/05/05 10:05:57;;;;;;;15.25;9.52;;;18.60;77.40;;;;;;5001606;28;20097;-78
2023/05/05 10:08:33;;;;;;;15.60;9.48;;;18.60;77.60;;;;;;4999580;28;20249;-77
2023/05/05 10:10:59;;;;;;;14.05;9.43;;;18.60;77.20;;;;;;5007073;28;20126;-78
2023/05/05 10:13:26;;;;;;;18.40;12.25;;;18.60;78.90;;;;;;4987499;28;20058;-80
2023/05/05 10:15:54;;;;;;;16.83;10.77;;;18.60;78.50;;;;;;5002631;28;20295;-79
2023/05/05 10:18:25;;;;;;;14.50;9.40;;;18.80;78.40;;;;;;5003652;28;20450;-78
2023/05/05 10:20:57;;;;;;;15.63;9.15;;;18.80;77.80;;;;;;4999522;28;20026;-83
2023/05/05 10:23:25;;;;;;;15.18;9.00;;;18.90;77.40;;;;;;5000799;28;20894;-80
2023/05/05 10:26:01;;;;;;;16.25;8.35;;;19.00;77.00;;;;;;5004070;28;20100;-78
2023/05/05 10:28:54;;;;;;;12.02;6.13;;;19.10;76.20;;;;;;5002737;28;20136;-76
2023/05/05 10:31:26;;;;;;;13.32;5.88;;;18.90;75.40;;;;;;4991461;28;20493;-78
2023/05/05 10:33:56;;;;;;;14.43;6.07;;;18.60;75.90;;;;;;5000120;28;20033;-80
2023/05/05 10:36:24;;;;;;;12.88;6.60;;;18.50;76.50;;;;;;4994601;28;20030;-84
2023/05/05 10:38:53;;;;;;;13.52;5.78;;;18.20;77.90;;;;;;4998084;28;20109;-82
2023/05/05 10:41:20;;;;;;;9.80;6.05;;;18.10;78.60;;;;;;4994678;28;20806;-79
2023/05/05 10:43:46;;;;;;;18.92;7.30;;;17.90;79.50;;;;;;4994994;28;20026;-80
2023/05/05 10:46:12;;;;;;;13.13;7.30;;;17.70;80.80;;;;;;4993759;28;20117;-79
2023/05/05 10:48:48;;;;;;;13.85;7.53;;;17.70;81.80;;;;;;4995706;28;20026;-76
2023/05/05 10:51:26;;;;;;;15.32;7.03;;;17.70;82.10;;;;;;4995110;28;20125;-76
2023/05/05 10:54:15;;;;;;;14.07;6.03;;;17.70;82.00;;;;;;4993977;28;20026;-77
2023/05/05 10:56:41;;;;;;;11.13;5.75;;;17.80;82.10;;;;;;4997361;28;20038;-81
2023/05/05 10:59:36;;;;;;;12.93;5.18;;;17.80;81.50;;;;;;4993485;28;20030;-78
2023/05/05 11:02:26;;;;;;;10.23;4.60;;;18.00;80.30;;;;;;4990375;28;20276;-76
2023/05/05 11:05:03;;;;;;;9.57;4.72;;;18.00;80.40;;;;;;4993035;28;20094;-80
2023/05/05 11:07:29;;;;;;;11.32;5.00;;;18.10;79.50;;;;;;4996232;28;20042;-79
2023/05/05 11:10:00;;;;;;;10.23;4.93;;;18.10;79.80;;;;;;4994954;28;20069;-78
2023/05/05 11:12:26;;;;;;;14.68;6.18;;;18.00;79.20;;;;;;4994615;28;20042;-77
2023/05/05 11:15:26;;;;;;;11.05;5.53;;;18.10;79.40;;;;;;4979988;28;20592;-76
2023/05/05 11:17:55;;;;;;;9.05;5.57;;;18.00;79.40;;;;;;4995922;28;20054;-79
2023/05/05 11:20:56;;;;;;;15.10;5.72;;;18.10;79.60;;;;;;4992538;28;20037;-81
2023/05/05 11:23:22;;;;;;;11.48;5.45;;;18.10;79.00;;;;;;4967510;28;20116;-81
2023/05/05 11:25:50;;;;;;;9.93;4.90;;;18.10;79.70;;;;;;4995981;28;20034;-82
2023/05/05 11:28:24;;;;;;;11.30;5.70;;;18.20;79.50;;;;;;4993574;28;20113;-77
2023/05/05 11:30:55;;;;;;;9.95;5.75;;;18.20;78.80;;;;;;4987905;28;20033;-78
2023/05/05 11:33:27;;;;;;;9.32;5.30;;;18.20;78.40;;;;;;5005261;28;20262;-78
2023/05/05 11:35:53;;;;;;;14.23;6.13;;;18.30;78.50;;;;;;5005728;28;20029;-79
2023/05/05 11:38:25;;;;;;;10.25;4.70;;;18.20;78.60;;;;;;4991283;28;20026;-79
2023/05/05 11:41:04;;;;;;;11.75;5.22;;;18.10;77.60;;;;;;5004160;28;20045;-82
2023/05/05 11:43:30;;;;;;;9.45;4.80;;;18.10;77.20;;;;;;5003182;28;20526;-77
2023/05/05 11:46:15;;;;;;;10.43;4.90;;;18.10;77.10;;;;;;5002958;28;20041;-80
2023/05/05 11:48:49;;;;;;;11.50;5.00;;;18.20;78.30;;;;;;4996338;28;20083;-80
2023/05/05 11:51:17;;;;;;;10.60;4.38;;;18.60;79.40;;;;;;4999268;28;20041;-85
2023/05/05 11:53:43;;;;;;;10.18;4.82;;;18.70;77.40;;;;;;5002297;28;20153;-83
2023/05/05 11:56:10;;;;;;;11.25;5.30;;;19.10;77.80;;;;;;5008072;28;20597;-81
2023/05/05 11:58:36;;;;;;;10.68;4.88;;;19.30;77.10;;;;;;5004744;28;20088;-80
2023/05/05 12:01:06;;;;;;;13.50;5.50;;;19.30;77.20;;;;;;5010051;28;20449;-76
2023/05/05 12:03:38;;;;;;;10.15;4.47;;;19.40;78.30;;;;;;4987826;28;20511;-82
2023/05/05 12:06:05;;;;;;;13.90;6.57;;;19.80;76.10;;;;;;5005637;28;20092;-80
2023/05/05 12:08:40;;;;;;;12.63;6.55;;;20.10;75.60;;;;;;5007277;28;20029;-81
2023/05/05 12:11:07;;;;;;;8.52;2.85;;;20.30;74.40;;;;;;5005925;28;20068;-80
2023/05/05 12:13:34;;;;;;;9.13;3.05;;;20.30;70.10;;;;;;5006229;28;20122;-79
2023/05/05 12:16:14;;;;;;;6.80;3.10;;;20.40;71.10;;;;;;5008065;28;20042;-80
2023/05/05 12:18:41;;;;;;;7.82;2.80;;;20.60;69.60;;;;;;5007260;28;20133;-80
2023/05/05 12:21:17;;;;;;;7.82;3.08;;;21.00;69.20;;;;;;5008838;28;20037;-81
2023/05/05 12:23:43;;;;;;;6.93;2.95;;;21.00;67.60;;;;;;5008382;28;20470;-78
2023/05/05 12:26:31;;;;;;;8.23;3.03;;;21.10;66.60;;;;;;5010621;28;20038;-76
2023/05/05 12:29:00;;;;;;;8.60;3.25;;;21.10;65.10;;;;;;5008092;28;20014;-79
2023/05/05 12:31:39;;;;;;;5.85;2.40;;;21.30;64.60;;;;;;5002203;28;21309;-78
2023/05/05 12:34:10;;;;;;;7.43;2.80;;;21.40;62.60;;;;;;5004989;28;20026;-80
2023/05/05 12:36:36;;;;;;;9.95;2.63;;;21.30;62.10;;;;;;5008128;28;20038;-81
2023/05/05 12:39:03;;;;;;;6.70;2.58;;;21.30;62.00;;;;;;4990592;28;20537;-77
2023/05/05 12:41:30;;;;;;;7.28;3.17;;;21.20;62.10;;;;;;5004745;28;20058;-87